createdAt,value
2018-08-22T00:00:37.392Z,100909.77
2018-08-22T00:01:53.539Z,100911.97
2018-08-22T00:03:04.438Z,100911.97
2018-08-22T00:04:16.946Z,100910.58
2018-08-22T00:05:34.233Z,100914.74
2018-08-22T00:06:48.014Z,100915.33
2018-08-22T00:07:57.146Z,100914.74
2018-08-22T00:09:11.039Z,100914.74
2018-08-22T00:10:33.975Z,100910.80
2018-08-22T00:11:47.274Z,100912.77
2018-08-22T00:12:58.496Z,100912.19
2018-08-22T00:14:06.766Z,100911.02
2018-08-22T00:15:26.325Z,100911.60
2018-08-22T00:16:38.920Z,100910.80
2018-08-22T00:17:49.852Z,100909.62
2018-08-22T00:19:02.519Z,100913.21
2018-08-22T00:20:13.916Z,100909.05
2018-08-22T00:21:20.030Z,100909.62
2018-08-22T00:22:33.268Z,100905.45
2018-08-22T00:23:47.159Z,100906.84
2018-08-22T00:25:23.280Z,100907.07
2018-08-22T00:26:33.965Z,100902.09
2018-08-22T00:27:44.156Z,100902.68
2018-08-22T00:28:54.867Z,100901.29
2018-08-22T00:30:06.927Z,100899.09
2018-08-22T00:31:10.445Z,100894.93
2018-08-22T00:32:16.738Z,100899.68
2018-08-22T00:33:25.815Z,100900.48
2018-08-22T00:34:37.365Z,100897.70
2018-08-22T00:35:51.066Z,100903.85
2018-08-22T00:37:02.596Z,100905.45
2018-08-22T00:38:15.099Z,100899.68
2018-08-22T00:39:29.034Z,100901.06
2018-08-22T00:40:42.032Z,100904.07
2018-08-22T00:41:52.902Z,100904.07
2018-08-22T00:43:04.065Z,100899.54
2018-08-22T00:44:13.007Z,100901.73
2018-08-22T00:45:25.044Z,100898.95
2018-08-22T00:46:39.191Z,100896.17
2018-08-22T00:47:51.673Z,100897.78
2018-08-22T00:49:01.086Z,100896.98
2018-08-22T00:50:15.446Z,100899.77
2018-08-22T00:51:25.168Z,100896.98
2018-08-22T00:52:38.908Z,100896.39
2018-08-22T00:53:52.397Z,100893.62
2018-08-22T00:55:06.296Z,100891.42
2018-08-22T00:56:19.747Z,100888.86
2018-08-22T00:57:34.251Z,100890.62
2018-08-22T00:58:37.857Z,100889.45
2018-08-22T00:59:41.227Z,100882.50
2018-08-22T01:00:44.662Z,100888.86
2018-08-22T01:01:48.036Z,100883.89
2018-08-22T01:02:51.480Z,100879.98
2018-08-22T01:03:54.943Z,100883.89
2018-08-22T01:04:58.427Z,100885.53
2018-08-22T01:06:04.186Z,100878.33
2018-08-22T01:07:07.832Z,100883.56
2018-08-22T01:08:11.222Z,100878.91
2018-08-22T01:09:14.601Z,100879.14
2018-08-22T01:10:17.997Z,100878.33
2018-08-22T01:11:22.297Z,100870.25
2018-08-22T01:12:43.878Z,100871.05
2018-08-22T01:13:47.458Z,100875.22
2018-08-22T01:14:51.185Z,100872.19
2018-08-22T01:15:54.951Z,100875.55
2018-08-22T01:17:05.328Z,100875.80
2018-08-22T01:18:08.922Z,100873.02
2018-08-22T01:19:12.349Z,100872.44
2018-08-22T01:20:15.719Z,100870.25
2018-08-22T01:21:24.309Z,100871.05
2018-08-22T01:22:32.764Z,100868.02
2018-08-22T01:23:40.909Z,100871.38
2018-08-22T01:24:44.394Z,100866.08
2018-08-22T01:25:47.902Z,100872.77
2018-08-22T01:26:51.323Z,100873.36
2018-08-22T01:27:54.772Z,100871.38
2018-08-22T01:28:58.231Z,100873.02
2018-08-22T01:30:01.630Z,100870.80
2018-08-22T01:31:05.519Z,100870.80
2018-08-22T01:32:10.141Z,100870.25
2018-08-22T01:33:24.343Z,100867.69
2018-08-22T01:34:38.117Z,100867.47
2018-08-22T01:35:44.751Z,100866.08
2018-08-22T01:37:01.133Z,100866.88
2018-08-22T01:38:09.200Z,100868.27
2018-08-22T01:39:19.011Z,100862.94
2018-08-22T01:40:31.891Z,100863.74
2018-08-22T01:41:49.515Z,100856.20
2018-08-22T01:42:59.691Z,100858.98
2018-08-22T01:44:17.705Z,100855.41
2018-08-22T01:45:23.478Z,100863.38
2018-08-22T01:46:27.214Z,100857.81
2018-08-22T01:47:36.243Z,100859.80
2018-08-22T01:48:45.100Z,100857.23
2018-08-22T01:49:54.450Z,100861.18
2018-08-22T01:51:02.340Z,100855.84
2018-08-22T01:52:06.162Z,100853.65
2018-08-22T01:53:22.323Z,100854.23
2018-08-22T01:54:30.711Z,100860.59
2018-08-22T01:55:37.309Z,100858.98
2018-08-22T01:58:04.759Z,100849.48
2018-08-22T01:59:12.365Z,100851.45
2018-08-22T02:00:18.650Z,100851.45
2018-08-22T02:01:22.457Z,100857.23
2018-08-22T02:03:39.052Z,100853.28
2018-08-22T02:04:42.974Z,100856.88
2018-08-22T02:05:59.678Z,100854.31
2018-08-22T02:07:03.326Z,100861.12
2018-08-22T02:08:07.074Z,100857.53
2018-08-22T02:09:12.174Z,100855.92
2018-08-22T02:10:16.256Z,100850.36
2018-08-22T02:11:20.231Z,100854.75
2018-08-22T02:12:32.610Z,100850.58
2018-08-22T02:13:44.004Z,100852.78
2018-08-22T02:14:55.775Z,100852.78
2018-08-22T02:16:00.908Z,100857.75
2018-08-22T02:18:20.733Z,100853.58
2018-08-22T02:19:27.888Z,100848.83
2018-08-22T02:20:39.437Z,100850.22
2018-08-22T02:21:52.084Z,100849.19
2018-08-22T02:22:57.572Z,100845.83
2018-08-22T02:24:05.128Z,100841.08
2018-08-22T02:25:15.081Z,100840.27
2018-08-22T02:26:28.255Z,100841.66
2018-08-22T02:27:35.733Z,100843.85
2018-08-22T02:28:42.747Z,100838.44
2018-08-22T02:29:50.162Z,100844.58
2018-08-22T02:30:53.576Z,100845.39
2018-08-22T02:31:56.977Z,100846.78
2018-08-22T02:33:00.424Z,100842.61
2018-08-22T02:34:04.698Z,100843.78
2018-08-22T02:35:08.111Z,100833.83
2018-08-22T02:36:11.463Z,100840.78
2018-08-22T02:37:14.884Z,100840.78
2018-08-22T02:38:24.128Z,100844.95
2018-08-22T02:39:27.548Z,100840.55
2018-08-22T02:40:30.988Z,100837.78
2018-08-22T02:41:40.926Z,100838.00
2018-08-22T02:42:44.857Z,100838.00
2018-08-22T02:43:48.674Z,100839.97
2018-08-22T02:45:10.082Z,100836.61
2018-08-22T02:46:15.884Z,100844.80
2018-08-22T02:47:25.443Z,100841.22
2018-08-22T02:48:29.970Z,100837.27
2018-08-22T02:49:36.438Z,100836.47
2018-08-22T02:50:41.513Z,100837.27
2018-08-22T02:51:46.452Z,100841.44
2018-08-22T02:52:52.606Z,100833.10
2018-08-22T02:53:58.285Z,100833.10
2018-08-22T02:55:04.031Z,100839.46
2018-08-22T02:56:07.402Z,100838.88
2018-08-22T02:57:10.796Z,100833.32
2018-08-22T02:58:14.220Z,100834.71
2018-08-22T02:59:17.622Z,100826.73
2018-08-22T03:00:21.000Z,100833.91
2018-08-22T03:01:24.413Z,100833.91
2018-08-22T03:02:27.895Z,100832.52
2018-08-22T03:03:31.325Z,100837.70
2018-08-22T03:04:34.728Z,100832.95
2018-08-22T03:05:38.098Z,100831.78
2018-08-22T03:06:41.489Z,100831.20
2018-08-22T03:07:44.896Z,100834.56
2018-08-22T03:08:48.314Z,100835.15
2018-08-22T03:09:51.813Z,100832.95
2018-08-22T03:10:55.210Z,100834.56
2018-08-22T03:11:58.620Z,100839.31
2018-08-22T03:13:02.056Z,100835.15
2018-08-22T03:14:05.561Z,100830.76
2018-08-22T03:15:08.952Z,100830.98
2018-08-22T03:16:12.384Z,100830.76
2018-08-22T03:17:15.772Z,100836.91
2018-08-22T03:18:19.227Z,100832.95
2018-08-22T03:19:22.644Z,100829.95
2018-08-22T03:20:26.027Z,100831.93
2018-08-22T03:21:29.462Z,100829.15
2018-08-22T03:22:32.872Z,100831.93
2018-08-22T03:23:36.281Z,100827.55
2018-08-22T03:24:39.678Z,100829.15
2018-08-22T03:25:43.137Z,100824.98
2018-08-22T03:26:46.532Z,100830.32
2018-08-22T03:27:49.943Z,100824.98
2018-08-22T03:28:53.354Z,100826.95
2018-08-22T03:29:56.730Z,100824.98
2018-08-22T03:31:00.114Z,100821.40
2018-08-22T03:32:03.524Z,100820.59
2018-08-22T03:33:06.913Z,100824.17
2018-08-22T03:34:10.383Z,100818.25
2018-08-22T03:35:13.789Z,100821.40
2018-08-22T03:36:17.213Z,100822.20
2018-08-22T03:37:20.601Z,100818.84
2018-08-22T03:38:24.094Z,100819.64
2018-08-22T03:39:27.494Z,100816.86
2018-08-22T03:40:30.907Z,100821.03
2018-08-22T03:41:34.302Z,100818.84
2018-08-22T03:42:37.663Z,100818.84
2018-08-22T03:43:41.235Z,100817.45
2018-08-22T03:44:44.608Z,100815.03
2018-08-22T03:45:47.981Z,100820.59
2018-08-22T03:46:51.378Z,100816.64
2018-08-22T03:47:54.824Z,100813.64
2018-08-22T03:48:58.182Z,100822.78
2018-08-22T03:50:01.575Z,100823.37
2018-08-22T03:51:04.961Z,100812.84
2018-08-22T03:52:08.364Z,100818.40
2018-08-22T03:53:11.744Z,100816.78
2018-08-22T03:54:15.148Z,100815.17
2018-08-22T03:55:18.585Z,100817.59
2018-08-22T03:56:21.976Z,100811.59
2018-08-22T03:57:25.368Z,100815.77
2018-08-22T03:58:28.767Z,100816.56
2018-08-22T03:59:32.177Z,100815.77
2018-08-22T04:00:35.553Z,100818.55
2018-08-22T04:01:38.941Z,100821.32
2018-08-22T04:02:42.340Z,100816.93
2018-08-22T04:03:45.714Z,100822.48
2018-08-22T04:04:49.076Z,100823.66
2018-08-22T04:05:52.498Z,100821.24
2018-08-22T04:06:56.033Z,100818.83
2018-08-22T04:07:59.531Z,100820.22
2018-08-22T04:09:03.005Z,100821.03
2018-08-22T04:10:06.855Z,100813.27
2018-08-22T04:11:10.249Z,100823.22
2018-08-22T04:12:13.674Z,100818.83
2018-08-22T04:13:17.076Z,100813.27
2018-08-22T04:14:20.501Z,100820.44
2018-08-22T04:15:24.104Z,100818.25
2018-08-22T04:16:27.510Z,100816.61
2018-08-22T04:17:35.142Z,100823.55
2018-08-22T04:18:38.596Z,100818.83
2018-08-22T04:19:42.116Z,100820.22
2018-08-22T04:20:45.508Z,100821.03
2018-08-22T04:21:48.909Z,100818.83
2018-08-22T04:22:52.340Z,100817.19
2018-08-22T04:23:55.768Z,100818.58
2018-08-22T04:24:59.252Z,100818.83
2018-08-22T04:26:02.719Z,100820.55
2018-08-22T04:27:06.627Z,100818.83
2018-08-22T04:28:10.020Z,100823.33
2018-08-22T04:29:13.439Z,100826.92
2018-08-22T04:30:16.814Z,100821.14
2018-08-22T04:31:20.224Z,100825.31
2018-08-22T04:32:23.623Z,100827.28
2018-08-22T04:33:27.021Z,100824.50
2018-08-22T04:34:30.411Z,100825.89
2018-08-22T04:35:33.825Z,100818.14
2018-08-22T04:36:37.188Z,100818.14
2018-08-22T04:37:40.559Z,100816.75
2018-08-22T04:38:43.956Z,100825.89
2018-08-22T04:39:47.471Z,100821.36
2018-08-22T04:40:50.898Z,100824.14
2018-08-22T04:41:54.351Z,100820.55
2018-08-22T04:42:57.808Z,100827.72
2018-08-22T04:44:01.200Z,100823.80
2018-08-22T04:45:04.609Z,100825.78
2018-08-22T04:46:07.997Z,100824.39
2018-08-22T04:47:11.365Z,100822.16
2018-08-22T04:48:14.876Z,100827.17
2018-08-22T04:49:18.193Z,100829.70
2018-08-22T04:50:21.623Z,100832.48
2018-08-22T04:51:25.151Z,100831.09
2018-08-22T04:52:28.516Z,100834.45
2018-08-22T04:53:31.888Z,100832.25
2018-08-22T04:54:35.271Z,100825.09
2018-08-22T04:55:38.630Z,100825.89
2018-08-22T04:56:42.023Z,100824.28
2018-08-22T04:57:45.621Z,100819.31
2018-08-22T04:58:49.002Z,100823.48
2018-08-22T04:59:52.493Z,100827.64
2018-08-22T05:00:55.900Z,100828.45
2018-08-22T05:01:59.508Z,100824.65
2018-08-22T05:03:02.882Z,100824.65
2018-08-22T05:04:06.333Z,100824.87
2018-08-22T05:05:09.733Z,100830.64
2018-08-22T05:06:13.131Z,100821.95
2018-08-22T05:07:16.838Z,100826.58
2018-08-22T05:08:20.245Z,100829.22
2018-08-22T05:09:23.687Z,100823.87
2018-08-22T05:10:27.062Z,100822.71
2018-08-22T05:11:30.472Z,100822.34
2018-08-22T05:12:33.862Z,100823.73
2018-08-22T05:13:37.268Z,100822.34
2018-08-22T05:14:40.672Z,100823.16
2018-08-22T05:15:44.087Z,100822.71
2018-08-22T05:16:47.594Z,100828.27
2018-08-22T05:17:51.123Z,100826.87
2018-08-22T05:18:54.533Z,100828.27
2018-08-22T05:19:58.015Z,100830.02
2018-08-22T05:21:01.408Z,100830.02
2018-08-22T05:22:04.832Z,100824.47
2018-08-22T05:23:08.220Z,100821.24
2018-08-22T05:24:11.620Z,100833.17
2018-08-22T05:25:14.990Z,100828.41
2018-08-22T05:26:18.407Z,100824.83
2018-08-22T05:27:21.879Z,100830.83
2018-08-22T05:28:25.329Z,100834.41
2018-08-22T05:29:28.856Z,100831.63
2018-08-22T05:30:32.275Z,100831.86
2018-08-22T05:31:35.684Z,100831.63
2018-08-22T05:32:39.073Z,100826.87
2018-08-22T05:33:42.488Z,100829.08
2018-08-22T05:34:45.882Z,100828.05
2018-08-22T05:35:49.274Z,100828.41
2018-08-22T05:36:52.705Z,100824.39
2018-08-22T05:37:56.216Z,100826.70
2018-08-22T05:38:59.601Z,100823.25
2018-08-22T05:40:03.027Z,100823.98
2018-08-22T05:41:06.422Z,100823.33
2018-08-22T05:42:09.867Z,100826.58
2018-08-22T05:43:13.416Z,100824.30
2018-08-22T05:44:16.816Z,100826.17
2018-08-22T05:45:20.202Z,100821.34
2018-08-22T05:46:23.596Z,100819.28
2018-08-22T05:47:27.024Z,100824.14
2018-08-22T05:48:30.416Z,100825.67
2018-08-22T05:49:33.802Z,100825.01
2018-08-22T05:50:37.250Z,100827.70
2018-08-22T05:51:40.648Z,100824.48
2018-08-22T05:52:44.068Z,100831.75
2018-08-22T05:53:47.471Z,100830.73
2018-08-22T05:54:50.888Z,100829.12
2018-08-22T05:55:54.383Z,100828.31
2018-08-22T05:56:57.769Z,100822.17
2018-08-22T05:58:01.419Z,100826.12
2018-08-22T05:59:04.877Z,100816.17
2018-08-22T06:00:08.998Z,100821.95
2018-08-22T06:01:12.418Z,100822.53
2018-08-22T06:02:15.864Z,100817.56
2018-08-22T06:03:19.419Z,100817.34
2018-08-22T06:04:22.781Z,100818.95
2018-08-22T06:05:26.185Z,100821.73
2018-08-22T06:06:29.553Z,100820.13
2018-08-22T06:07:32.988Z,100819.90
2018-08-22T06:08:36.451Z,100824.65
2018-08-22T06:09:40.100Z,100818.28
2018-08-22T06:10:43.534Z,100821.06
2018-08-22T06:11:46.968Z,100825.45
2018-08-22T06:12:50.392Z,100819.90
2018-08-22T06:13:53.798Z,100817.13
2018-08-22T06:14:57.173Z,100822.90
2018-08-22T06:16:00.601Z,100828.67
2018-08-22T06:17:04.006Z,100812.02
2018-08-22T06:18:07.392Z,100817.56
2018-08-22T06:19:10.800Z,100819.98
2018-08-22T06:20:14.188Z,100816.40
2018-08-22T06:21:17.742Z,100815.38
2018-08-22T06:22:21.213Z,100821.06
2018-08-22T06:23:24.656Z,100817.27
2018-08-22T06:24:28.293Z,100816.59
2018-08-22T06:25:31.771Z,100813.92
2018-08-22T06:26:36.038Z,100816.03
2018-08-22T06:27:39.480Z,100818.00
2018-08-22T06:28:42.931Z,100814.64
2018-08-22T06:29:46.302Z,100816.17
2018-08-22T06:30:49.685Z,100814.92
2018-08-22T06:31:53.206Z,100819.80
2018-08-22T06:32:56.680Z,100812.19
2018-08-22T06:34:00.289Z,100815.19
2018-08-22T06:35:03.819Z,100818.88
2018-08-22T06:36:16.021Z,100814.62
2018-08-22T06:37:19.369Z,100818.21
2018-08-22T06:38:23.185Z,100816.60
2018-08-22T06:39:26.600Z,100811.05
2018-08-22T06:40:30.520Z,100809.66
2018-08-22T06:41:34.435Z,100814.62
2018-08-22T06:42:37.864Z,100813.69
2018-08-22T06:43:41.650Z,100814.05
2018-08-22T06:44:45.034Z,100815.66
2018-08-22T06:45:48.413Z,100818.21
2018-08-22T06:46:51.879Z,100817.18
2018-08-22T06:47:55.278Z,100814.62
2018-08-22T06:48:58.679Z,100819.82
2018-08-22T06:50:02.157Z,100814.27
2018-08-22T06:51:06.446Z,100817.63
2018-08-22T06:52:11.023Z,100823.18
2018-08-22T06:53:15.397Z,100820.77
2018-08-22T06:54:19.619Z,100819.59
2018-08-22T06:55:23.086Z,100821.80
2018-08-22T06:56:26.480Z,100814.62
2018-08-22T06:57:30.145Z,100822.38
2018-08-22T06:58:33.596Z,100817.05
2018-08-22T06:59:37.807Z,100819.24
2018-08-22T07:00:41.216Z,100820.41
2018-08-22T07:01:44.595Z,100824.80
2018-08-22T07:02:47.999Z,100826.18
2018-08-22T07:03:51.405Z,100821.44
2018-08-22T07:04:55.454Z,100824.20
2018-08-22T07:05:58.870Z,100815.88
2018-08-22T07:07:02.470Z,100825.23
2018-08-22T07:08:05.941Z,100821.91
2018-08-22T07:09:11.081Z,100825.12
2018-08-22T07:10:14.501Z,100821.41
2018-08-22T07:11:17.939Z,100822.58
2018-08-22T07:12:21.368Z,100817.47
2018-08-22T07:13:24.846Z,100814.47
2018-08-22T07:14:28.246Z,100826.02
2018-08-22T07:15:31.703Z,100825.89
2018-08-22T07:16:35.120Z,100825.89
2018-08-22T07:17:38.535Z,100821.95
2018-08-22T07:18:41.935Z,100822.17
2018-08-22T07:19:45.347Z,100817.56
2018-08-22T07:20:49.026Z,100821.95
2018-08-22T07:21:58.081Z,100817.78
2018-08-22T07:23:01.817Z,100827.27
2018-08-22T07:24:05.324Z,100825.89
2018-08-22T07:25:08.748Z,100831.44
2018-08-22T07:26:12.167Z,100825.30
2018-08-22T07:27:15.704Z,100822.30
2018-08-22T07:28:19.488Z,100825.30
2018-08-22T07:29:22.891Z,100826.69
2018-08-22T07:30:26.278Z,100827.27
2018-08-22T07:31:29.700Z,100826.69
2018-08-22T07:32:33.191Z,100823.92
2018-08-22T07:33:36.580Z,100826.92
2018-08-22T07:34:39.957Z,100829.91
2018-08-22T07:35:43.393Z,100828.30
2018-08-22T07:36:46.772Z,100825.97
2018-08-22T07:37:50.160Z,100822.39
2018-08-22T07:38:53.545Z,100829.78
2018-08-22T07:39:57.038Z,100826.20
2018-08-22T07:41:00.438Z,100827.25
2018-08-22T07:42:03.887Z,100826.89
2018-08-22T07:43:07.700Z,100818.56
2018-08-22T07:44:11.686Z,100823.31
2018-08-22T07:45:15.223Z,100822.73
2018-08-22T07:46:18.940Z,100821.56
2018-08-22T07:47:22.441Z,100820.76
2018-08-22T07:48:25.861Z,100824.12
2018-08-22T07:49:29.277Z,100821.34
2018-08-22T07:50:33.199Z,100825.50
2018-08-22T07:51:36.640Z,100822.73
2018-08-22T07:52:48.616Z,100828.28
2018-08-22T07:53:52.068Z,100825.28
2018-08-22T07:54:55.495Z,100824.48
2018-08-22T07:55:58.932Z,100830.25
2018-08-22T07:57:02.339Z,100829.67
2018-08-22T07:58:06.015Z,100825.14
2018-08-22T07:59:11.861Z,100826.75
2018-08-22T08:00:15.363Z,100826.17
2018-08-22T08:01:18.696Z,100830.34
2018-08-22T08:02:22.443Z,100824.78
2018-08-22T08:03:25.905Z,100829.53
2018-08-22T08:04:29.300Z,100830.34
2018-08-22T08:05:32.756Z,100822.59
2018-08-22T08:06:36.165Z,100827.78
2018-08-22T08:07:39.605Z,100825.23
2018-08-22T08:08:43.502Z,100823.48
2018-08-22T08:09:46.929Z,100826.25
2018-08-22T08:10:51.055Z,100825.45
2018-08-22T08:11:54.461Z,100829.84
2018-08-22T08:12:57.842Z,100828.67
2018-08-22T08:14:01.436Z,100825.31
2018-08-22T08:15:05.170Z,100827.50
2018-08-22T08:16:08.689Z,100835.25
2018-08-22T08:17:12.106Z,100831.09
2018-08-22T08:18:15.552Z,100832.70
2018-08-22T08:19:18.927Z,100832.59
2018-08-22T08:20:22.673Z,100836.17
2018-08-22T08:21:26.144Z,100827.84
2018-08-22T08:22:29.580Z,100827.26
2018-08-22T08:23:34.016Z,100831.88
2018-08-22T08:24:38.096Z,100829.31
2018-08-22T08:25:42.368Z,100825.37
2018-08-22T08:26:47.347Z,100828.95
2018-08-22T08:27:51.896Z,100826.98
2018-08-22T08:28:55.322Z,100828.81
2018-08-22T08:29:58.755Z,100824.87
2018-08-22T08:31:02.152Z,100826.25
2018-08-22T08:32:05.570Z,100826.48
2018-08-22T08:33:09.026Z,100821.95
2018-08-22T08:34:12.529Z,100821.59
2018-08-22T08:35:15.990Z,100816.84
2018-08-22T08:36:19.378Z,100819.03
2018-08-22T08:37:22.809Z,100819.84
2018-08-22T08:38:26.238Z,100821.22
2018-08-22T08:39:29.651Z,100814.53
2018-08-22T08:40:33.082Z,100816.73
2018-08-22T08:41:36.794Z,100815.78
2018-08-22T08:42:40.179Z,100812.64
2018-08-22T08:43:43.940Z,100815.20
2018-08-22T08:44:47.501Z,100813.08
2018-08-22T08:45:50.957Z,100816.89
2018-08-22T08:46:55.196Z,100813.63
2018-08-22T08:47:58.654Z,100810.86
2018-08-22T08:49:02.074Z,100810.27
2018-08-22T08:50:05.484Z,100812.24
2018-08-22T08:51:08.893Z,100805.66
2018-08-22T08:52:12.337Z,100811.58
2018-08-22T08:53:15.722Z,100810.52
2018-08-22T08:54:19.230Z,100811.11
2018-08-22T08:55:22.659Z,100810.66
2018-08-22T08:56:26.177Z,100808.84
2018-08-22T08:57:29.564Z,100810.80
2018-08-22T08:58:33.031Z,100816.51
2018-08-22T08:59:36.458Z,100813.48
2018-08-22T09:00:39.881Z,100810.25
2018-08-22T09:01:43.285Z,100807.25
2018-08-22T09:02:46.728Z,100812.59
2018-08-22T09:03:50.282Z,100809.01
2018-08-22T09:04:54.138Z,100811.56
2018-08-22T09:05:57.584Z,100800.81
2018-08-22T09:07:01.173Z,100809.73
2018-08-22T09:08:04.840Z,100804.54
2018-08-22T09:09:09.523Z,100807.31
2018-08-22T09:10:12.920Z,100805.12
2018-08-22T09:11:16.322Z,100798.77
2018-08-22T09:12:19.783Z,100807.45
2018-08-22T09:13:23.207Z,100796.13
2018-08-22T09:14:26.947Z,100808.04
2018-08-22T09:15:30.548Z,100805.27
2018-08-22T09:16:34.090Z,100802.27
2018-08-22T09:17:37.691Z,100806.65
2018-08-22T09:18:41.120Z,100800.07
2018-08-22T09:19:44.537Z,100805.05
2018-08-22T09:20:48.043Z,100804.82
2018-08-22T09:21:51.439Z,100806.43
2018-08-22T09:22:54.859Z,100804.23
2018-08-22T09:23:58.266Z,100802.59
2018-08-22T09:25:01.784Z,100802.05
2018-08-22T09:26:05.267Z,100803.43
2018-08-22T09:27:08.812Z,100804.56
2018-08-22T09:28:13.136Z,100801.45
2018-08-22T09:29:16.468Z,100802.84
2018-08-22T09:30:19.908Z,100801.20
2018-08-22T09:31:23.423Z,100795.09
2018-08-22T09:32:26.775Z,100786.77
2018-08-22T09:33:30.172Z,100800.66
2018-08-22T09:34:33.606Z,100793.45
2018-08-22T09:35:37.114Z,100791.84
2018-08-22T09:36:40.469Z,100791.48
2018-08-22T09:37:43.838Z,100790.68
2018-08-22T09:38:47.317Z,100782.94
2018-08-22T09:39:50.748Z,100786.52
2018-08-22T09:40:54.176Z,100780.96
2018-08-22T09:41:57.677Z,100784.55
2018-08-22T09:43:01.185Z,100778.77
2018-08-22T09:44:04.869Z,100774.60
2018-08-22T09:45:08.288Z,100776.80
2018-08-22T09:46:11.728Z,100774.60
2018-08-22T09:47:15.168Z,100780.16
2018-08-22T09:48:18.597Z,100775.19
2018-08-22T09:49:22.090Z,100777.96
2018-08-22T09:50:25.473Z,100778.77
2018-08-22T09:51:28.926Z,100775.98
2018-08-22T09:52:32.358Z,100775.19
2018-08-22T09:53:35.742Z,100769.41
2018-08-22T09:54:54.297Z,100770.80
2018-08-22T09:55:57.689Z,100779.35
2018-08-22T09:57:01.105Z,100771.02
2018-08-22T09:58:04.581Z,100773.21
2018-08-22T09:59:08.233Z,100771.61
2018-08-22T10:00:16.773Z,100771.02
2018-08-22T10:01:55.166Z,100772.41
2018-08-22T10:02:58.558Z,100772.88
2018-08-22T10:04:02.522Z,100775.19
2018-08-22T10:05:05.941Z,100772.41
2018-08-22T10:06:09.445Z,100766.86
2018-08-22T10:07:13.455Z,100768.83
2018-08-22T10:08:16.829Z,100766.05
2018-08-22T10:09:21.572Z,100770.80
2018-08-22T10:10:25.047Z,100765.24
2018-08-22T10:11:28.572Z,100769.41
2018-08-22T10:12:32.059Z,100769.41
2018-08-22T10:13:35.484Z,100770.80
2018-08-22T10:14:38.940Z,100769.63
2018-08-22T10:15:42.336Z,100772.19
2018-08-22T10:16:45.723Z,100770.22
2018-08-22T10:17:49.192Z,100768.24
2018-08-22T10:18:53.521Z,100769.41
2018-08-22T10:19:56.931Z,100765.24
2018-08-22T10:21:00.384Z,100767.44
2018-08-22T10:22:04.037Z,100763.86
2018-08-22T10:23:07.440Z,100758.30
2018-08-22T10:24:10.891Z,100764.08
2018-08-22T10:25:14.269Z,100764.08
2018-08-22T10:26:17.666Z,100762.69
2018-08-22T10:27:21.103Z,100760.49
2018-08-22T10:28:24.563Z,100757.13
2018-08-22T10:29:28.327Z,100761.30
2018-08-22T10:30:32.076Z,100759.91
2018-08-22T10:31:35.838Z,100757.72
2018-08-22T10:32:39.303Z,100759.33
2018-08-22T10:33:42.766Z,100752.16
2018-08-22T10:34:46.181Z,100748.00
2018-08-22T10:35:49.558Z,100757.36
2018-08-22T10:36:52.998Z,100755.16
2018-08-22T10:37:56.404Z,100751.80
2018-08-22T10:38:59.817Z,100749.02
2018-08-22T10:40:03.473Z,100752.39
2018-08-22T10:41:07.583Z,100746.83
2018-08-22T10:42:11.035Z,100749.61
2018-08-22T10:43:14.460Z,100747.64
2018-08-22T10:44:17.859Z,100742.66
2018-08-22T10:45:21.307Z,100739.08
2018-08-22T10:46:24.836Z,100736.53
2018-08-22T10:47:28.272Z,100733.75
2018-08-22T10:48:31.772Z,100735.72
2018-08-22T10:49:35.206Z,100739.30
2018-08-22T10:50:38.722Z,100737.92
2018-08-22T10:51:42.064Z,100737.11
2018-08-22T10:52:45.478Z,100737.00
2018-08-22T10:53:48.911Z,100733.64
2018-08-22T10:54:52.664Z,100733.05
2018-08-22T10:55:56.100Z,100731.89
2018-08-22T10:56:59.682Z,100736.27
2018-08-22T10:58:03.121Z,100729.91
2018-08-22T10:59:06.607Z,100732.91
2018-08-22T11:00:13.243Z,100733.72
2018-08-22T11:01:16.655Z,100729.33
2018-08-22T11:02:20.094Z,100726.77
2018-08-22T11:03:23.561Z,100725.02
2018-08-22T11:04:26.995Z,100725.38
2018-08-22T11:05:30.417Z,100729.77
2018-08-22T11:06:33.802Z,100729.19
2018-08-22T11:07:37.239Z,100729.98
2018-08-22T11:08:40.788Z,100728.96
2018-08-22T11:09:44.224Z,100727.21
2018-08-22T11:10:47.634Z,100721.44
2018-08-22T11:11:51.104Z,100725.02
2018-08-22T11:12:54.567Z,100722.24
2018-08-22T11:13:57.990Z,100722.24
2018-08-22T11:15:01.405Z,100723.05
2018-08-22T11:16:04.920Z,100720.27
2018-08-22T11:17:08.502Z,100718.52
2018-08-22T11:18:11.893Z,100724.66
2018-08-22T11:19:15.281Z,100720.70
2018-08-22T11:20:18.735Z,100716.98
2018-08-22T11:21:33.516Z,100718.15
2018-08-22T11:22:48.392Z,100717.34
2018-08-22T11:24:03.190Z,100718.95
2018-08-22T11:25:17.988Z,100716.61
2018-08-22T11:26:32.803Z,100720.56
2018-08-22T11:27:47.539Z,100716.98
2018-08-22T11:29:02.374Z,100714.79
2018-08-22T11:30:17.103Z,100710.63
2018-08-22T11:31:32.268Z,100716.98
2018-08-22T11:32:46.962Z,100712.81
2018-08-22T11:34:01.973Z,100713.03
2018-08-22T11:35:04.232Z,100715.59
2018-08-22T11:36:06.814Z,100717.78
2018-08-22T11:37:11.291Z,100722.75
2018-08-22T11:38:14.681Z,100715.81
2018-08-22T11:39:18.075Z,100715.59
2018-08-22T11:40:21.540Z,100713.62
2018-08-22T11:41:24.962Z,100711.64
2018-08-22T11:42:28.582Z,100713.84
2018-08-22T11:43:32.078Z,100708.28
2018-08-22T11:44:35.528Z,100707.48
2018-08-22T11:45:38.954Z,100704.70
2018-08-22T11:46:42.408Z,100705.88
2018-08-22T11:47:45.843Z,100711.64
2018-08-22T11:48:49.249Z,100710.26
2018-08-22T11:49:52.659Z,100713.03
2018-08-22T11:50:56.133Z,100714.42
2018-08-22T11:51:59.897Z,100706.09
2018-08-22T11:53:03.297Z,100699.14
2018-08-22T11:54:06.954Z,100705.50
2018-08-22T11:55:10.376Z,100707.48
2018-08-22T11:56:14.413Z,100706.31
2018-08-22T11:57:17.983Z,100703.53
2018-08-22T11:58:21.553Z,100704.92
2018-08-22T11:59:24.971Z,100699.59
2018-08-22T12:00:28.445Z,100699.00
2018-08-22T12:01:31.901Z,100706.20
2018-08-22T12:02:35.350Z,100701.22
2018-08-22T12:03:38.767Z,100707.00
2018-08-22T12:04:42.329Z,100696.47
2018-08-22T12:05:45.732Z,100697.27
2018-08-22T12:06:49.389Z,100702.83
2018-08-22T12:07:52.864Z,100703.27
2018-08-22T12:08:56.261Z,100701.08
2018-08-22T12:09:59.677Z,100695.16
2018-08-22T12:11:03.104Z,100699.77
2018-08-22T12:12:06.879Z,100701.15
2018-08-22T12:13:10.348Z,100696.40
2018-08-22T12:14:13.845Z,100702.76
2018-08-22T12:15:17.301Z,100698.00
2018-08-22T12:16:20.761Z,100697.20
2018-08-22T12:17:24.139Z,100695.81
2018-08-22T12:18:27.660Z,100689.67
2018-08-22T12:19:31.070Z,100697.20
2018-08-22T12:20:34.494Z,100693.03
2018-08-22T12:21:38.247Z,100691.06
2018-08-22T12:22:41.719Z,100690.48
2018-08-22T12:23:45.172Z,100684.12
2018-08-22T12:24:48.640Z,100681.34